Time;durP1;ratioP1;P1;durP2;ratioP2;P2;SDS_P1;SDS_P2;PMS_P1;PMS_P2;Temp;Humidity;BMP_temperature;BMP_pressure;BME280_temperature;BME280_humidity;BME280_pressure;Samples;Min_cycle;Max_cycle;Signal;HPM_P1;HPM_P2
2024/02/03 00:00:11;;;;;;;22.73;13.63;;;9.40;98.50;;;;;;5007524;28;20191;-84
2024/02/03 00:02:37;;;;;;;23.63;15.03;;;9.40;97.90;;;;;;5008490;28;20211;-84
2024/02/03 00:05:02;;;;;;;23.10;14.80;;;9.40;98.70;;;;;;5003699;28;20446;-87
2024/02/03 00:07:28;;;;;;;24.87;15.00;;;9.40;99.20;;;;;;5001572;28;20186;-86
2024/02/03 00:09:53;;;;;;;23.63;14.00;;;9.40;98.50;;;;;;5005670;28;21418;-85
2024/02/03 00:12:21;;;;;;;22.73;14.93;;;9.40;99.30;;;;;;5006319;28;20263;-86
2024/02/03 00:14:46;;;;;;;21.20;14.20;;;9.40;98.20;;;;;;5004892;28;20195;-86
2024/02/03 00:17:12;;;;;;;25.80;15.07;;;9.40;98.80;;;;;;5002926;28;20450;-86
2024/02/03 00:19:40;;;;;;;23.27;14.93;;;9.40;98.60;;;;;;5001774;28;20246;-86
2024/02/03 00:22:06;;;;;;;23.07;14.60;;;9.40;99.20;;;;;;5003383;28;20212;-85
2024/02/03 00:24:31;;;;;;;20.43;13.33;;;9.40;98.60;;;;;;5002566;28;20450;-87
2024/02/03 00:26:57;;;;;;;20.60;12.77;;;9.40;99.10;;;;;;5003035;28;20198;-86
2024/02/03 00:29:22;;;;;;;23.80;14.90;;;9.40;99.10;;;;;;5002451;28;20231;-87
2024/02/03 00:31:48;;;;;;;25.17;14.60;;;9.40;99.40;;;;;;5003020;28;20224;-86
2024/02/03 00:34:13;;;;;;;21.33;15.30;;;9.40;99.20;;;;;;5000301;28;20311;-87
2024/02/03 00:36:39;;;;;;;25.83;14.93;;;9.40;97.90;;;;;;5003339;28;20537;-85
2024/02/03 00:39:06;;;;;;;30.47;14.87;;;9.40;98.40;;;;;;5003272;28;20203;-86
2024/02/03 00:41:31;;;;;;;21.97;13.93;;;9.40;98.20;;;;;;5003477;28;20184;-86
2024/02/03 00:43:57;;;;;;;23.53;14.70;;;9.40;97.80;;;;;;5002081;28;20537;-87
2024/02/03 00:46:23;;;;;;;25.57;14.20;;;9.40;98.40;;;;;;5000363;28;20195;-87
2024/02/03 00:48:48;;;;;;;22.03;13.47;;;9.40;99.00;;;;;;5002861;28;20204;-86
2024/02/03 00:51:14;;;;;;;18.20;12.60;;;9.40;99.10;;;;;;5001177;28;20184;-86
2024/02/03 00:53:41;;;;;;;21.60;13.37;;;9.40;98.80;;;;;;5002513;28;20200;-85
2024/02/03 00:56:07;;;;;;;19.43;13.70;;;9.40;98.70;;;;;;5003844;28;20172;-87
2024/02/03 00:58:33;;;;;;;21.70;13.40;;;9.40;98.80;;;;;;5002862;28;20440;-87
2024/02/03 01:00:59;;;;;;;22.07;13.83;;;9.40;99.00;;;;;;5003459;28;21908;-84
2024/02/03 01:03:25;;;;;;;20.33;13.50;;;9.40;99.60;;;;;;5003471;28;20208;-87
2024/02/03 01:05:51;;;;;;;19.00;13.20;;;9.40;99.00;;;;;;5002378;28;20435;-86
2024/02/03 01:08:16;;;;;;;19.50;13.07;;;9.40;98.60;;;;;;5002296;28;20574;-87
2024/02/03 01:10:42;;;;;;;21.97;14.30;;;9.50;98.70;;;;;;5003845;28;20469;-87
2024/02/03 01:13:08;;;;;;;18.57;12.70;;;9.40;99.10;;;;;;5004055;28;20208;-87
2024/02/03 01:15:34;;;;;;;21.90;13.77;;;9.50;98.90;;;;;;5002768;28;20264;-87
2024/02/03 01:18:00;;;;;;;21.03;12.73;;;9.50;98.40;;;;;;5000345;28;20455;-87
2024/02/03 01:20:25;;;;;;;19.70;12.90;;;9.50;98.70;;;;;;5003599;28;20180;-87
2024/02/03 01:22:51;;;;;;;19.80;13.43;;;9.50;98.50;;;;;;4999300;28;20239;-86
2024/02/03 01:25:16;;;;;;;15.70;11.40;;;9.40;97.80;;;;;;5003637;28;20199;-87
2024/02/03 01:27:42;;;;;;;19.60;13.10;;;9.50;98.40;;;;;;5003092;28;20192;-86
2024/02/03 01:30:09;;;;;;;22.87;13.80;;;9.50;98.30;;;;;;5002435;28;20243;-86
2024/02/03 01:32:35;;;;;;;20.50;12.80;;;9.50;98.80;;;;;;5001725;28;20467;-87
2024/02/03 01:35:00;;;;;;;18.60;12.90;;;9.50;98.80;;;;;;5002261;28;20582;-86
2024/02/03 01:37:26;;;;;;;20.67;13.20;;;9.40;98.50;;;;;;5009998;28;20256;-84
2024/02/03 01:39:52;;;;;;;19.00;12.60;;;9.40;98.60;;;;;;5010561;28;20195;-87
2024/02/03 01:42:17;;;;;;;16.73;11.30;;;9.50;98.70;;;;;;5011383;28;20212;-84
2024/02/03 01:44:43;;;;;;;19.30;12.57;;;9.50;98.40;;;;;;5011565;28;20206;-85
2024/02/03 01:47:10;;;;;;;17.10;12.60;;;9.50;98.40;;;;;;5012339;28;20267;-84
2024/02/03 01:49:36;;;;;;;17.33;12.47;;;9.40;98.40;;;;;;5007880;28;20519;-84
2024/02/03 01:52:04;;;;;;;17.40;11.67;;;9.40;98.70;;;;;;5010366;28;20486;-86
2024/02/03 01:54:30;;;;;;;17.20;11.93;;;9.40;98.50;;;;;;5011308;28;20505;-86
2024/02/03 01:56:58;;;;;;;18.90;12.00;;;9.40;99.40;;;;;;5010511;28;20683;-85
2024/02/03 01:59:27;;;;;;;20.23;11.50;;;9.40;99.80;;;;;;5006369;28;20192;-86
2024/02/03 02:01:57;;;;;;;16.77;10.90;;;9.40;99.90;;;;;;5010122;28;20454;-85
2024/02/03 02:04:27;;;;;;;17.27;10.93;;;9.40;99.90;;;;;;5010838;28;20447;-87
2024/02/03 02:06:52;;;;;;;13.80;10.53;;;9.40;99.90;;;;;;5010071;28;20448;-87
2024/02/03 02:09:22;;;;;;;14.17;9.90;;;9.40;99.90;;;;;;5011005;28;20489;-86
2024/02/03 02:11:51;;;;;;;17.87;11.00;;;9.40;99.90;;;;;;5008914;28;21959;-86
2024/02/03 02:14:18;;;;;;;16.17;10.63;;;9.40;99.90;;;;;;5012584;28;20453;-87
2024/02/03 02:16:44;;;;;;;15.83;10.30;;;9.40;99.90;;;;;;5004595;28;20439;-84
2024/02/03 02:19:09;;;;;;;17.53;9.93;;;9.50;99.90;;;;;;5010893;28;20431;-86
2024/02/03 02:21:35;;;;;;;15.40;10.27;;;9.50;99.90;;;;;;5009552;28;20187;-86
2024/02/03 02:24:01;;;;;;;12.20;8.70;;;9.50;99.90;;;;;;5009949;28;20198;-85
2024/02/03 02:26:27;;;;;;;15.00;9.10;;;9.50;99.90;;;;;;5010843;28;20184;-85
2024/02/03 02:28:52;;;;;;;13.57;9.90;;;9.50;99.90;;;;;;5009222;28;20490;-84
2024/02/03 02:31:18;;;;;;;15.00;10.17;;;9.50;99.90;;;;;;5010315;28;20196;-87
2024/02/03 02:33:44;;;;;;;13.33;9.63;;;9.50;99.90;;;;;;5010045;28;20717;-86
2024/02/03 02:36:09;;;;;;;13.23;9.03;;;9.50;99.90;;;;;;5010003;28;20394;-85
2024/02/03 02:38:35;;;;;;;16.20;11.23;;;9.50;99.90;;;;;;5008860;28;20196;-86
2024/02/03 02:41:00;;;;;;;14.97;9.37;;;9.50;99.90;;;;;;5008385;28;20192;-86
2024/02/03 02:43:26;;;;;;;18.00;9.20;;;9.50;99.90;;;;;;5010138;28;20224;-86
2024/02/03 02:45:52;;;;;;;13.83;9.90;;;9.50;99.90;;;;;;5007821;28;20194;-85
2024/02/03 02:48:17;;;;;;;12.40;8.93;;;9.50;99.90;;;;;;5009138;28;20208;-86
2024/02/03 02:50:43;;;;;;;13.97;8.17;;;9.50;99.90;;;;;;5005832;28;20243;-85
2024/02/03 02:53:09;;;;;;;13.90;9.30;;;9.50;99.90;;;;;;5007509;28;20212;-85
2024/02/03 02:55:34;;;;;;;11.23;7.60;;;9.50;99.90;;;;;;5008636;28;20435;-87
2024/02/03 02:58:00;;;;;;;11.57;8.20;;;9.50;99.90;;;;;;5008006;28;20247;-85
2024/02/03 03:00:26;;;;;;;12.47;8.90;;;9.50;99.90;;;;;;5008716;28;20188;-86
2024/02/03 03:02:51;;;;;;;11.60;8.87;;;9.50;99.90;;;;;;5009532;28;20292;-86
2024/02/03 03:05:17;;;;;;;13.70;8.80;;;9.50;99.90;;;;;;5007613;28;20192;-86
2024/02/03 03:07:43;;;;;;;14.97;9.80;;;9.50;99.90;;;;;;5005978;28;20615;-86
2024/02/03 03:10:09;;;;;;;11.87;8.00;;;9.50;99.90;;;;;;5009038;28;20189;-86
2024/02/03 03:12:34;;;;;;;9.83;7.73;;;9.50;99.90;;;;;;5010188;28;20538;-87
2024/02/03 03:15:00;;;;;;;9.80;7.33;;;9.50;99.90;;;;;;5012697;28;20188;-86
2024/02/03 03:17:26;;;;;;;10.20;7.70;;;9.50;99.90;;;;;;5009095;28;20442;-82
2024/02/03 03:19:52;;;;;;;11.40;7.90;;;9.50;99.90;;;;;;5009319;28;20276;-87
2024/02/03 03:22:18;;;;;;;15.13;7.77;;;9.50;99.40;;;;;;5010147;28;20459;-86
2024/02/03 03:24:44;;;;;;;10.53;7.43;;;9.50;99.30;;;;;;5009034;28;20180;-86
2024/02/03 03:27:10;;;;;;;10.77;7.67;;;9.50;99.60;;;;;;5005282;28;20446;-84
2024/02/03 03:29:37;;;;;;;10.37;7.60;;;9.50;98.30;;;;;;5009495;28;20857;-86
2024/02/03 03:32:03;;;;;;;13.30;8.77;;;9.50;97.70;;;;;;5009236;28;20451;-86
2024/02/03 03:34:28;;;;;;;11.00;7.37;;;9.50;97.90;;;;;;5009278;28;20499;-85
2024/02/03 03:36:54;;;;;;;9.07;7.40;;;9.50;97.00;;;;;;5008402;28;20194;-85
2024/02/03 03:39:20;;;;;;;12.10;7.90;;;9.50;95.50;;;;;;5009243;28;20569;-86
2024/02/03 03:41:46;;;;;;;11.63;8.17;;;9.50;95.20;;;;;;5008435;28;20179;-85
2024/02/03 03:44:11;;;;;;;12.50;8.60;;;9.50;95.30;;;;;;5019577;23;20494;-84
2024/02/03 03:46:38;;;;;;;12.80;8.30;;;9.60;95.20;;;;;;4992761;28;20207;-81
2024/02/03 03:49:03;;;;;;;13.60;8.20;;;9.60;94.10;;;;;;4980127;28;20216;-84
2024/02/03 03:51:29;;;;;;;9.60;7.37;;;9.60;92.80;;;;;;4980249;28;20819;-83
2024/02/03 03:53:54;;;;;;;12.03;8.00;;;9.60;92.60;;;;;;4974509;28;20213;-84
2024/02/03 03:56:20;;;;;;;12.30;8.00;;;9.60;91.70;;;;;;4956290;28;20310;-83
2024/02/03 03:58:46;;;;;;;10.57;7.70;;;9.60;90.70;;;;;;4953663;28;20192;-83
2024/02/03 04:01:11;;;;;;;12.30;8.10;;;9.60;88.90;;;;;;4954368;28;20197;-83
2024/02/03 04:03:37;;;;;;;12.57;7.63;;;9.60;89.30;;;;;;4955779;28;20220;-83
2024/02/03 04:06:03;;;;;;;13.00;8.80;;;9.60;89.20;;;;;;4953771;28;20272;-82
2024/02/03 04:08:28;;;;;;;12.73;8.93;;;9.70;85.70;;;;;;4958090;28;20220;-83
2024/02/03 04:10:54;;;;;;;14.20;8.83;;;9.70;84.20;;;;;;4964377;28;20225;-83
2024/02/03 04:13:19;;;;;;;11.07;7.80;;;9.70;82.50;;;;;;4962195;28;21215;-83
2024/02/03 04:15:45;;;;;;;11.00;8.23;;;9.70;81.40;;;;;;4967891;28;20662;-85
2024/02/03 04:18:11;;;;;;;10.87;8.33;;;9.70;80.50;;;;;;4970804;28;20670;-83
2024/02/03 04:20:36;;;;;;;13.17;8.17;;;9.70;78.50;;;;;;4965202;28;20287;-83
2024/02/03 04:23:02;;;;;;;11.97;8.40;;;9.70;76.60;;;;;;4956984;28;20209;-83
2024/02/03 04:25:27;;;;;;;13.07;8.87;;;9.70;75.10;;;;;;4963269;28;20181;-84
2024/02/03 04:27:53;;;;;;;13.77;9.20;;;9.70;75.70;;;;;;4968453;28;20193;-83
2024/02/03 04:30:19;;;;;;;17.33;9.60;;;9.80;73.60;;;;;;4970461;28;20240;-83
2024/02/03 04:32:45;;;;;;;12.93;8.73;;;9.80;74.60;;;;;;4964294;28;20197;-83
2024/02/03 04:35:10;;;;;;;12.30;8.30;;;9.80;72.90;;;;;;4963800;28;20564;-84
2024/02/03 04:37:36;;;;;;;13.00;8.90;;;9.80;70.90;;;;;;4964626;28;20497;-84
2024/02/03 04:40:02;;;;;;;15.13;9.70;;;9.80;70.00;;;;;;4965223;28;20203;-82
2024/02/03 04:42:28;;;;;;;15.07;10.03;;;9.80;71.90;;;;;;4981101;28;20169;-83
2024/02/03 04:44:53;;;;;;;13.60;9.60;;;9.80;71.10;;;;;;4963998;28;20534;-83
2024/02/03 04:47:19;;;;;;;14.93;9.47;;;9.80;71.40;;;;;;4969859;28;20337;-83
2024/02/03 04:49:44;;;;;;;13.87;10.27;;;9.80;67.80;;;;;;4980008;28;20209;-83
2024/02/03 04:52:10;;;;;;;14.70;10.70;;;9.80;69.60;;;;;;4972521;28;20212;-83
2024/02/03 04:54:35;;;;;;;13.50;9.93;;;9.80;68.10;;;;;;4960002;28;20233;-82
2024/02/03 04:57:00;;;;;;;16.13;9.50;;;9.90;69.10;;;;;;4968763;28;20200;-84
2024/02/03 04:59:26;;;;;;;13.67;10.20;;;9.90;65.80;;;;;;4972421;28;20193;-84
2024/02/03 05:01:52;;;;;;;17.70;9.97;;;9.90;66.50;;;;;;4964792;28;20221;-84
2024/02/03 05:04:17;;;;;;;12.37;9.23;;;9.90;65.50;;;;;;4969004;28;20254;-84
2024/02/03 05:06:43;;;;;;;13.60;10.40;;;9.90;65.10;;;;;;4964183;28;20193;-83
2024/02/03 05:09:08;;;;;;;12.93;9.80;;;9.90;67.00;;;;;;4962831;28;20220;-84
2024/02/03 05:11:34;;;;;;;14.30;10.07;;;9.90;66.00;;;;;;4974871;28;20193;-84
2024/02/03 05:14:00;;;;;;;15.17;9.50;;;9.90;64.90;;;;;;4975696;28;20197;-82
2024/02/03 05:16:26;;;;;;;15.10;9.90;;;9.90;64.30;;;;;;4959577;28;20448;-84
2024/02/03 05:18:52;;;;;;;13.50;9.60;;;9.90;64.60;;;;;;4969776;28;20252;-84
2024/02/03 05:21:18;;;;;;;15.43;10.30;;;9.90;65.80;;;;;;4974152;28;20192;-83
2024/02/03 05:23:44;;;;;;;14.40;10.50;;;9.90;67.70;;;;;;4960998;28;20488;-84
2024/02/03 05:26:09;;;;;;;14.87;10.07;;;9.90;69.10;;;;;;4978892;28;20246;-85
2024/02/03 05:28:35;;;;;;;15.13;10.57;;;9.90;67.40;;;;;;4963241;28;20673;-84
2024/02/03 05:31:00;;;;;;;14.30;9.80;;;9.90;64.70;;;;;;4963850;28;20185;-84
2024/02/03 05:33:26;;;;;;;17.30;10.60;;;10.00;62.20;;;;;;4966592;28;20254;-82
2024/02/03 05:35:52;;;;;;;13.80;8.67;;;10.00;60.60;;;;;;4961394;28;20693;-84
2024/02/03 05:38:17;;;;;;;14.63;10.30;;;10.00;59.10;;;;;;4960550;28;20200;-85
2024/02/03 05:40:43;;;;;;;11.80;8.80;;;10.00;59.40;;;;;;4956941;28;20192;-84
2024/02/03 05:43:08;;;;;;;14.33;9.93;;;10.00;61.30;;;;;;4956896;28;20224;-85
2024/02/03 05:45:34;;;;;;;14.70;10.10;;;10.00;61.10;;;;;;4957056;28;20217;-84
2024/02/03 05:48:00;;;;;;;16.30;9.90;;;10.00;60.50;;;;;;4961887;28;20235;-84
2024/02/03 05:50:25;;;;;;;14.03;9.43;;;10.00;62.90;;;;;;4960143;28;20476;-84
2024/02/03 05:52:51;;;;;;;14.53;9.80;;;10.00;60.30;;;;;;4968695;28;20212;-84
2024/02/03 05:55:16;;;;;;;16.70;8.73;;;10.00;63.30;;;;;;4967113;28;20213;-84
2024/02/03 05:57:49;;;;;;;12.40;9.20;;;10.00;61.00;;;;;;4973648;28;20191;-84
2024/02/03 06:00:16;;;;;;;14.63;9.60;;;10.00;58.40;;;;;;4959729;28;20189;-84
2024/02/03 06:02:41;;;;;;;13.90;9.87;;;10.00;56.80;;;;;;4971999;28;20445;-84
2024/02/03 06:05:07;;;;;;;12.80;9.10;;;10.00;58.20;;;;;;4963967;28;20440;-84
2024/02/03 06:07:33;;;;;;;15.23;9.43;;;10.00;55.20;;;;;;4959029;28;20848;-84
2024/02/03 06:09:58;;;;;;;12.00;9.10;;;10.00;54.50;;;;;;4972143;28;20459;-84
2024/02/03 06:12:24;;;;;;;12.27;9.27;;;10.00;53.10;;;;;;4966677;28;20582;-84
2024/02/03 06:14:49;;;;;;;13.53;8.37;;;10.00;53.20;;;;;;4983363;28;20192;-85
2024/02/03 06:17:15;;;;;;;16.73;9.80;;;10.00;51.70;;;;;;4969953;28;20597;-84
2024/02/03 06:19:40;;;;;;;17.93;10.03;;;10.10;49.80;;;;;;4976013;28;20272;-84
2024/02/03 06:22:06;;;;;;;12.80;9.20;;;10.10;47.40;;;;;;4971576;28;20197;-84
2024/02/03 06:24:31;;;;;;;14.87;9.30;;;10.10;48.20;;;;;;4961081;28;20216;-85
2024/02/03 06:26:57;;;;;;;18.63;10.50;;;10.10;49.10;;;;;;4968158;28;20193;-85
2024/02/03 06:29:22;;;;;;;11.90;9.37;;;10.10;51.10;;;;;;4966647;28;20466;-85
2024/02/03 06:31:48;;;;;;;16.50;9.43;;;10.10;52.50;;;;;;4976362;28;20184;-85
2024/02/03 06:34:13;;;;;;;16.70;9.57;;;10.10;58.10;;;;;;4964989;28;20201;-84
2024/02/03 06:36:40;;;;;;;13.67;9.83;;;10.10;62.70;;;;;;4969501;28;20235;-84
2024/02/03 06:39:06;;;;;;;15.60;9.30;;;10.10;66.60;;;;;;4971055;28;20229;-85
2024/02/03 06:41:32;;;;;;;16.00;10.83;;;10.10;72.70;;;;;;4969956;28;20974;-85
2024/02/03 06:43:57;;;;;;;13.77;9.63;;;10.00;77.00;;;;;;4974629;28;20226;-85
2024/02/03 06:46:23;;;;;;;15.47;10.60;;;10.00;82.70;;;;;;4968996;28;20436;-85
2024/02/03 06:48:48;;;;;;;16.37;11.20;;;10.00;86.20;;;;;;4964606;28;20264;-84
2024/02/03 06:51:14;;;;;;;16.73;11.53;;;10.00;89.00;;;;;;4971180;28;20193;-82
2024/02/03 06:53:39;;;;;;;20.03;10.83;;;10.00;91.60;;;;;;4973956;28;20698;-85
2024/02/03 06:56:05;;;;;;;17.63;11.33;;;10.00;93.50;;;;;;4964291;28;20189;-85
2024/02/03 06:58:32;;;;;;;19.57;10.50;;;10.00;94.90;;;;;;4961245;28;20329;-84
2024/02/03 07:00:57;;;;;;;18.00;11.03;;;10.00;95.40;;;;;;4968361;28;20455;-85
2024/02/03 07:03:23;;;;;;;17.13;10.57;;;10.00;96.20;;;;;;4968578;28;20977;-84
2024/02/03 07:05:48;;;;;;;15.90;10.80;;;10.00;97.00;;;;;;4955435;28;20305;-85
2024/02/03 07:08:13;;;;;;;17.73;11.47;;;10.00;96.90;;;;;;4963584;28;20711;-85
2024/02/03 07:10:39;;;;;;;16.67;10.23;;;10.00;96.70;;;;;;4988624;28;20209;-84
2024/02/03 07:13:05;;;;;;;16.40;10.13;;;10.10;97.70;;;;;;4969832;28;20631;-84
2024/02/03 07:15:30;;;;;;;14.60;9.97;;;10.10;96.30;;;;;;4976373;28;20689;-85
2024/02/03 07:17:55;;;;;;;14.10;9.60;;;10.10;93.40;;;;;;4961010;28;20188;-84
2024/02/03 07:20:21;;;;;;;13.97;10.20;;;10.20;90.50;;;;;;4963587;28;20180;-84
2024/02/03 07:22:46;;;;;;;13.67;9.33;;;10.20;86.60;;;;;;4962127;28;20211;-85
2024/02/03 07:25:12;;;;;;;14.37;9.33;;;10.30;85.40;;;;;;4984492;28;20209;-85
2024/02/03 07:27:38;;;;;;;13.23;8.83;;;10.30;80.30;;;;;;4971292;28;20185;-84
2024/02/03 07:30:04;;;;;;;16.27;10.37;;;10.30;77.00;;;;;;4959781;28;20476;-84
2024/02/03 07:32:30;;;;;;;12.73;9.17;;;10.30;72.40;;;;;;4964835;28;20197;-84
2024/02/03 07:34:56;;;;;;;15.70;9.80;;;10.30;71.30;;;;;;4972486;28;20512;-84
2024/02/03 07:37:21;;;;;;;17.37;9.10;;;10.40;72.00;;;;;;4971437;28;20191;-85
2024/02/03 07:39:47;;;;;;;17.53;9.40;;;10.40;70.80;;;;;;4966654;28;20456;-85
2024/02/03 07:42:15;;;;;;;17.27;10.00;;;10.40;68.60;;;;;;4961151;28;20196;-85
2024/02/03 07:44:41;;;;;;;14.17;8.93;;;10.40;66.10;;;;;;4972030;28;20384;-86
2024/02/03 07:47:07;;;;;;;17.43;9.70;;;10.40;70.00;;;;;;4971545;28;20476;-85
2024/02/03 07:49:32;;;;;;;18.93;10.03;;;10.40;70.30;;;;;;4980035;28;20540;-85
2024/02/03 07:51:57;;;;;;;14.90;9.70;;;10.40;71.50;;;;;;4977788;28;20220;-85
2024/02/03 07:54:23;;;;;;;14.20;10.03;;;10.30;72.60;;;;;;4973912;28;20240;-85
2024/02/03 07:56:48;;;;;;;14.93;9.07;;;10.40;72.90;;;;;;4966079;28;20238;-85
2024/02/03 07:59:15;;;;;;;16.20;10.20;;;10.30;71.30;;;;;;4977570;28;20207;-85
2024/02/03 08:01:40;;;;;;;12.93;8.03;;;10.40;72.70;;;;;;4979064;28;20199;-84
2024/02/03 08:04:06;;;;;;;12.67;8.90;;;10.40;70.60;;;;;;4972645;28;20476;-85
2024/02/03 08:06:31;;;;;;;15.57;9.23;;;10.40;66.60;;;;;;4969258;28;20194;-85
2024/02/03 08:08:57;;;;;;;13.50;8.10;;;10.40;66.20;;;;;;4972804;28;20229;-85
2024/02/03 08:11:22;;;;;;;12.17;8.70;;;10.40;63.30;;;;;;4978177;28;20220;-85
2024/02/03 08:13:48;;;;;;;11.30;8.33;;;10.50;59.80;;;;;;4975547;28;20212;-84
2024/02/03 08:16:13;;;;;;;11.30;8.17;;;10.50;58.40;;;;;;4978912;28;20192;-86
2024/02/03 08:18:42;;;;;;;12.60;7.83;;;10.50;60.00;;;;;;4986269;28;20196;-85
2024/02/03 08:21:07;;;;;;;15.87;8.33;;;10.60;57.80;;;;;;4959436;28;20200;-85
2024/02/03 08:23:33;;;;;;;13.10;8.17;;;10.60;56.20;;;;;;4957419;28;20464;-85
2024/02/03 08:25:58;;;;;;;15.00;9.33;;;10.60;57.20;;;;;;4960924;28;20271;-84
2024/02/03 08:28:24;;;;;;;10.70;7.60;;;10.60;59.00;;;;;;4972065;28;20216;-84
2024/02/03 08:30:49;;;;;;;13.00;8.40;;;10.60;61.70;;;;;;4968327;28;20188;-84
2024/02/03 08:33:15;;;;;;;15.80;9.20;;;10.60;63.50;;;;;;4956541;28;20209;-84
2024/02/03 08:35:40;;;;;;;13.77;9.10;;;10.60;63.70;;;;;;4969218;28;20200;-85
2024/02/03 08:38:07;;;;;;;15.37;8.30;;;10.60;65.00;;;;;;4957511;28;20181;-85
2024/02/03 08:40:33;;;;;;;13.10;9.00;;;10.60;68.20;;;;;;4960785;28;20172;-85
2024/02/03 08:42:58;;;;;;;13.03;9.03;;;10.60;71.70;;;;;;4966507;28;20531;-84
2024/02/03 08:45:24;;;;;;;16.20;11.10;;;10.60;71.10;;;;;;4966099;28;20189;-82
2024/02/03 08:47:50;;;;;;;17.03;10.07;;;10.60;74.20;;;;;;4967484;28;20185;-84
2024/02/03 08:50:15;;;;;;;14.97;9.43;;;10.60;78.80;;;;;;4989701;28;20239;-84
2024/02/03 08:52:41;;;;;;;14.80;9.27;;;10.60;81.30;;;;;;4966787;28;20456;-83
2024/02/03 08:55:07;;;;;;;16.90;10.00;;;10.60;84.40;;;;;;4971494;28;20189;-84
2024/02/03 08:57:33;;;;;;;20.93;10.67;;;10.60;84.90;;;;;;4971749;28;20173;-83
2024/02/03 08:59:58;;;;;;;17.77;11.67;;;10.60;89.80;;;;;;4960861;28;20444;-84
2024/02/03 09:02:24;;;;;;;19.43;10.90;;;10.60;90.10;;;;;;4969885;28;20440;-86
2024/02/03 09:04:49;;;;;;;19.83;11.33;;;10.60;90.30;;;;;;4971298;28;20252;-85
2024/02/03 09:07:15;;;;;;;16.20;9.97;;;10.60;90.20;;;;;;4971511;28;20185;-84
2024/02/03 09:09:41;;;;;;;18.37;12.73;;;10.60;91.00;;;;;;4970265;28;20205;-84
2024/02/03 09:12:07;;;;;;;19.50;10.50;;;10.60;90.70;;;;;;4974868;28;20185;-85
2024/02/03 09:14:32;;;;;;;17.50;11.17;;;10.70;90.10;;;;;;4971476;28;20197;-83
2024/02/03 09:16:58;;;;;;;21.70;10.30;;;10.70;90.40;;;;;;4967067;28;20451;-84
2024/02/03 09:19:24;;;;;;;21.50;11.30;;;10.70;89.90;;;;;;4974642;28;20811;-84
2024/02/03 09:21:50;;;;;;;17.00;10.97;;;10.70;89.90;;;;;;4977106;28;20193;-83
2024/02/03 09:24:15;;;;;;;17.20;10.80;;;10.70;87.30;;;;;;4974164;28;20542;-85
2024/02/03 09:26:43;;;;;;;22.90;13.40;;;10.70;87.80;;;;;;4984315;28;20203;-85
2024/02/03 09:29:09;;;;;;;21.53;13.13;;;10.70;83.70;;;;;;4973662;28;20217;-85
2024/02/03 09:31:34;;;;;;;21.00;12.37;;;10.70;86.10;;;;;;4971765;28;20433;-84
2024/02/03 09:34:04;;;;;;;17.87;10.80;;;10.70;84.30;;;;;;4977758;28;20523;-84
2024/02/03 09:36:30;;;;;;;19.27;11.20;;;10.80;85.10;;;;;;4974859;28;20185;-85
2024/02/03 09:38:56;;;;;;;20.07;11.10;;;10.80;82.60;;;;;;4981791;28;20868;-85
2024/02/03 09:41:22;;;;;;;19.27;10.80;;;10.80;76.50;;;;;;4967014;28;20487;-84
2024/02/03 09:43:48;;;;;;;20.27;10.83;;;10.80;73.40;;;;;;4977319;28;20543;-85
2024/02/03 09:46:14;;;;;;;18.93;11.57;;;10.80;65.70;;;;;;4976486;28;20698;-85
2024/02/03 09:48:39;;;;;;;17.57;11.00;;;10.80;65.00;;;;;;4978128;28;21030;-84
2024/02/03 09:51:05;;;;;;;19.20;12.37;;;10.80;65.10;;;;;;4969666;28;20192;-84
2024/02/03 09:53:31;;;;;;;18.90;11.37;;;10.90;63.20;;;;;;4971292;28;20205;-85
2024/02/03 09:55:57;;;;;;;20.63;11.57;;;10.80;60.30;;;;;;4974707;28;20503;-84
2024/02/03 09:58:24;;;;;;;20.80;11.10;;;10.80;61.00;;;;;;4971513;28;20236;-84
2024/02/03 10:00:53;;;;;;;20.47;11.97;;;10.90;61.70;;;;;;4979021;28;20457;-85
2024/02/03 10:03:19;;;;;;;20.53;11.60;;;10.90;62.20;;;;;;4972195;28;20989;-85
2024/02/03 10:05:45;;;;;;;22.13;11.90;;;10.90;62.70;;;;;;4968133;28;20441;-86
2024/02/03 10:08:10;;;;;;;31.73;12.37;;;10.90;62.40;;;;;;4980282;28;20452;-85
2024/02/03 10:10:38;;;;;;;20.90;13.23;;;11.00;63.70;;;;;;4988550;28;20237;-85
2024/02/03 10:13:08;;;;;;;29.57;12.73;;;11.00;64.10;;;;;;4969007;28;20212;-85
2024/02/03 10:15:35;;;;;;;20.83;11.57;;;11.10;59.00;;;;;;4988991;28;20535;-85
2024/02/03 10:18:01;;;;;;;21.67;12.33;;;11.10;59.40;;;;;;4983657;28;21021;-84
2024/02/03 10:20:27;;;;;;;21.83;11.43;;;11.10;57.90;;;;;;4978122;28;20443;-84
2024/02/03 10:22:52;;;;;;;23.60;10.77;;;11.20;56.70;;;;;;4970053;28;20642;-83
2024/02/03 10:25:24;;;;;;;22.13;12.90;;;11.20;57.10;;;;;;4983327;28;20473;-84
2024/02/03 10:28:03;;;;;;;20.60;12.80;;;11.20;54.10;;;;;;4955850;28;20221;-84
2024/02/03 10:30:34;;;;;;;26.20;12.90;;;11.20;55.60;;;;;;4962337;28;20455;-84
2024/02/03 10:33:04;;;;;;;16.83;10.33;;;11.30;52.20;;;;;;4951940;28;20523;-82
2024/02/03 10:35:35;;;;;;;21.93;11.43;;;11.20;50.00;;;;;;4963828;28;20441;-85
2024/02/03 10:38:00;;;;;;;16.60;11.40;;;11.20;48.70;;;;;;4958386;28;20437;-82
2024/02/03 10:40:33;;;;;;;28.50;11.70;;;11.20;47.70;;;;;;4984344;28;20455;-84
2024/02/03 10:42:59;;;;;;;17.67;10.93;;;11.20;52.60;;;;;;4965445;28;20295;-84
2024/02/03 10:45:30;;;;;;;20.00;11.40;;;11.10;53.50;;;;;;4968968;28;20433;-84
2024/02/03 10:47:58;;;;;;;18.90;9.90;;;11.20;55.60;;;;;;4966504;28;20428;-84
2024/02/03 10:50:44;;;;;;;18.03;10.17;;;11.20;55.30;;;;;;4969993;28;20448;-85
2024/02/03 10:53:29;;;;;;;16.90;9.20;;;11.20;52.50;;;;;;4971218;28;20518;-85
2024/02/03 10:55:59;;;;;;;16.53;9.93;;;11.30;53.40;;;;;;4968654;28;20457;-85
2024/02/03 10:58:27;;;;;;;19.23;11.33;;;11.40;50.90;;;;;;4973859;28;20436;-84
2024/02/03 11:00:53;;;;;;;15.67;9.23;;;11.50;46.40;;;;;;4982688;28;20445;-84
2024/02/03 11:03:22;;;;;;;17.13;8.77;;;11.50;38.40;;;;;;4988564;28;20610;-84
2024/02/03 11:05:52;;;;;;;13.53;8.90;;;11.50;29.70;;;;;;4976191;28;20177;-84
2024/02/03 11:08:19;;;;;;;15.53;8.13;;;11.60;26.10;;;;;;4978857;28;20534;-86
2024/02/03 11:10:51;;;;;;;19.03;9.17;;;11.60;22.20;;;;;;4971436;28;20420;-84
2024/02/03 11:13:27;;;;;;;11.97;8.17;;;11.70;20.50;;;;;;4972294;28;20479;-85
2024/02/03 11:16:00;;;;;;;13.90;8.67;;;11.70;18.30;;;;;;4966088;28;21195;-84
2024/02/03 11:18:26;;;;;;;12.67;7.87;;;11.70;11.90;;;;;;4985142;28;20467;-82
2024/02/03 11:21:05;;;;;;;14.00;8.40;;;11.80;7.40;;;;;;4964593;28;20455;-85
2024/02/03 11:23:31;;;;;;;15.03;8.50;;;11.70;4.20;;;;;;4964584;28;20495;-84
2024/02/03 11:25:58;;;;;;;12.13;8.20;;;11.70;6.00;;;;;;4967111;28;20604;-84
2024/02/03 11:28:23;;;;;;;14.37;8.60;;;11.80;7.70;;;;;;4989782;28;20217;-84
2024/02/03 11:31:09;;;;;;;12.07;8.40;;;11.80;11.00;;;;;;4968383;28;20461;-85
2024/02/03 11:33:43;;;;;;;18.40;8.77;;;11.80;9.10;;;;;;4974206;28;20235;-85
2024/02/03 11:36:10;;;;;;;12.13;8.13;;;11.80;12.70;;;;;;4970404;28;20992;-85
2024/02/03 11:38:45;;;;;;;12.23;7.50;;;11.80;11.50;;;;;;4965211;28;20432;-84
2024/02/03 11:41:11;;;;;;;13.73;7.90;;;11.90;10.40;;;;;;4965837;28;20989;-85
2024/02/03 11:43:37;;;;;;;12.70;7.47;;;11.90;13.30;;;;;;4988688;28;20486;-84
2024/02/03 11:46:05;;;;;;;18.90;8.20;;;12.00;7.40;;;;;;4968209;28;20448;-84
2024/02/03 11:48:31;;;;;;;16.33;9.20;;;11.90;1.00;;;;;;4970715;28;20224;-83
2024/02/03 11:50:57;;;;;;;17.77;7.93;;;11.90;3.30;;;;;;4964802;28;20444;-84
2024/02/03 11:53:26;;;;;;;24.17;10.40;;;11.90;5.30;;;;;;4977897;28;20317;-83
2024/02/03 11:55:53;;;;;;;14.07;8.40;;;11.90;1.60;;;;;;4970721;28;20445;-85
2024/02/03 11:58:28;;;;;;;14.80;9.67;;;11.90;1.00;;;;;;4985636;28;20446;-84
2024/02/03 12:01:19;;;;;;;17.33;9.00;;;11.90;1.00;;;;;;4977856;28;20442;-84
2024/02/03 12:03:46;;;;;;;15.37;9.00;;;11.90;1.00;;;;;;4975704;28;20452;-84
2024/02/03 12:06:12;;;;;;;12.80;8.00;;;11.80;1.00;;;;;;4979440;28;20867;-84
2024/02/03 12:08:38;;;;;;;13.47;9.00;;;11.80;1.30;;;;;;4965150;28;20567;-84
2024/02/03 12:11:05;;;;;;;15.00;9.60;;;11.80;3.80;;;;;;4977325;28;20448;-84
2024/02/03 12:13:39;;;;;;;19.17;9.13;;;11.70;7.10;;;;;;4969607;28;21168;-83
2024/02/03 12:16:08;;;;;;;17.13;10.60;;;11.70;7.30;;;;;;4977171;28;20498;-84
2024/02/03 12:18:37;;;;;;;20.60;10.53;;;11.70;6.70;;;;;;4983912;28;20452;-84
2024/02/03 12:21:02;;;;;;;18.60;9.63;;;11.70;5.90;;;;;;4977702;28;20490;-85
2024/02/03 12:23:28;;;;;;;15.57;10.23;;;11.70;7.30;;;;;;4979458;28;20463;-85
2024/02/03 12:25:54;;;;;;;16.40;9.90;;;11.70;2.40;;;;;;4974275;28;20300;-84
2024/02/03 12:28:21;;;;;;;19.97;10.70;;;11.70;1.00;;;;;;4975579;28;20472;-86
2024/02/03 12:30:57;;;;;;;23.90;11.83;;;11.70;1.20;;;;;;4979138;28;20177;-84
2024/02/03 12:33:22;;;;;;;19.43;10.57;;;11.60;4.90;;;;;;4995425;28;20858;-84